Waianae, HI (96792)

1:52 AM HST on July 28, 2015 (GMT -1000)
Wheeler Army Air Field | | Change Station
CLOSE
Current Station
Airport
Location: Wheeler AAF,
Elevation: 837 ft
Nearby Weather Stations
Active Advisory: High Surf Advisory Active Notice: Record Report

Elev 837 ft 21.48 °N, 158.04 °W | Updated 42 minutes ago

Scattered Clouds
Scattered Clouds
73 °F
Feels Like 73 °F
N
1
Wind Variable Wind from Variable

Today
High -- | Low -- °F
--% Chance of Precip.
Yesterday
High -- | Low -- °F
Precip. -- in
6:04 AM 7:13 PM
Waxing Gibbous, 89% visible
Pressure 29.95 in
Visibility 10.0 miles
Clouds Scattered Clouds 2000 ft
Scattered Clouds 4400 ft
Dew Point 70 °F
Humidity 88%
Rainfall 0.00 in
Snow Depth Not available.
UV 0 out of 12
Pollen Not available.
Air Quality Not available.
Flu Activity Not available.
SPECI PHHI 281110Z AUTO VRB01KT 10SM SCT020 SCT044 23/21 A2995 RMK AO2 RAE07DZB07E10 $

More Conditions Fewer Conditions

Pressure 29.95 in
Visibility 10.0 miles
Clouds Scattered Clouds 2000 ft
Scattered Clouds 4400 ft
Dew Point 70 °F
Humidity 88%
Rainfall 0.00 in
Snow Depth Not available.
UV 0 out of 12
Pollen Not available.
Air Quality Not available.
Flu Activity Not available.
SPECI PHHI 281110Z AUTO VRB01KT 10SM SCT020 SCT044 23/21 A2995 RMK AO2 RAE07DZB07E10 $

More Conditions Fewer Conditions

10-Day Weather Forecast

×

Almanac

Astronomy

Jul. 28, 2015 Rise Set
Actual Time
Civil Twilight
Nautical Twilight
Astronomical Twilight
Moon
Length of Visible Light
Length of Day
Tomorrow will be .
, % of the Moon is Illuminated

Today's Extremes

State Highs State Lows

Community

WunderPhotos

Upload Photos

1,841,808 photos uploaded!

WunderBlogs® & News

Nearby

Air Quality

  Air Quality AQ Index Pollutant
Not available.

Snow Depth

Station Depth Elevation

Earthquake Activity

City Distance Mag. Time & Date
Minimum magnitude displayed is 2.5.

Coastal Water Temperatures

Place Temperature

Stations

Nearby Weather Stations

Station Location Temp. Windchill Dew Point Humidity Wind Precip. Elev Updated Type
                   
High Surf Advisory
Statement as of 3:31 PM HST on July 27, 2015

... High surf advisory remains in effect until 6 am HST Tuesday...

A high surf advisory remains in effect until 6 am HST Tuesday.

* Surf... along south facing shores of all islands... 6 to 9 feet
tonight.

* Timing... through tonight.

* Impacts... moderate... expect strong breaking waves... shore
break... and strong longshore and rip currents making swimming
difficult and dangerous.

Precautionary/preparedness actions...

Beachgoers... swimmers... and surfers should heed all advice given
by ocean safety officials and exercise caution. Know your
limits... when in doubt... do not go out.


Wroe